createdAt,value
2023-05-20T00:00:11.497Z,13.52
2023-05-20T00:05:34.775Z,13.47
2023-05-20T00:10:47.855Z,13.41
2023-05-20T00:15:53.322Z,13.42
2023-05-20T00:20:56.478Z,13.43
2023-05-20T00:26:00.870Z,13.48
2023-05-20T00:31:04.994Z,13.53
2023-05-20T00:36:08.972Z,13.55
2023-05-20T00:41:12.462Z,13.52
2023-05-20T00:46:15.711Z,13.49
2023-05-20T00:51:19.429Z,13.47
2023-05-20T00:56:23.102Z,13.45
2023-05-20T01:01:26.738Z,13.47
2023-05-20T01:06:30.098Z,13.49
2023-05-20T01:11:39.038Z,13.47
2023-05-20T01:16:44.229Z,13.43
2023-05-20T01:21:48.378Z,13.39
2023-05-20T01:26:52.985Z,13.33
2023-05-20T01:31:59.065Z,13.34
2023-05-20T01:37:04.881Z,13.41
2023-05-20T01:42:10.562Z,13.44
2023-05-20T01:47:13.826Z,13.43
2023-05-20T01:52:17.996Z,13.39
2023-05-20T01:57:22.669Z,13.36
2023-05-20T02:02:26.617Z,13.34
2023-05-20T02:07:29.840Z,13.34
2023-05-20T02:12:33.039Z,13.40
2023-05-20T02:17:36.273Z,13.40
2023-05-20T02:22:39.927Z,13.41
2023-05-20T02:27:43.082Z,13.41
2023-05-20T02:32:46.168Z,13.39
2023-05-20T02:37:49.270Z,13.39
2023-05-20T02:42:52.421Z,13.43
2023-05-20T02:47:55.756Z,13.45
2023-05-20T02:53:01.717Z,13.48
2023-05-20T02:58:05.163Z,13.45
2023-05-20T03:03:10.489Z,13.42
2023-05-20T03:08:13.738Z,13.43
2023-05-20T03:13:16.931Z,13.47
2023-05-20T03:18:20.200Z,13.49
2023-05-20T03:23:23.440Z,13.47
2023-05-20T03:28:26.842Z,13.46
2023-05-20T03:33:30.246Z,13.42
2023-05-20T03:38:34.053Z,13.46
2023-05-20T03:43:37.162Z,13.53
2023-05-20T03:48:41.703Z,13.55
2023-05-20T03:58:29.900Z,13.58
2023-05-20T04:03:33.464Z,13.55
2023-05-20T04:08:39.713Z,13.55
2023-05-20T04:13:43.404Z,13.59
2023-05-20T04:18:48.532Z,13.66
2023-05-20T04:23:51.972Z,13.70
2023-05-20T04:28:59.154Z,13.73
2023-05-20T04:34:04.613Z,13.73
2023-05-20T04:39:08.284Z,13.77
2023-05-20T04:44:11.813Z,13.83
2023-05-20T04:49:15.442Z,13.89
2023-05-20T04:54:20.476Z,13.91
2023-05-20T04:59:23.737Z,13.90
2023-05-20T05:04:27.492Z,13.88
2023-05-20T05:09:31.759Z,13.91
2023-05-20T05:14:36.062Z,14.00
2023-05-20T05:19:39.284Z,14.09
2023-05-20T05:24:43.207Z,14.15
2023-05-20T05:29:46.527Z,14.20
2023-05-20T05:34:49.818Z,14.25
2023-05-20T05:39:53.082Z,14.35
2023-05-20T05:44:56.337Z,14.48
2023-05-20T05:50:03.371Z,14.60
2023-05-20T05:55:10.677Z,14.67
2023-05-20T06:00:14.252Z,14.75
2023-05-20T06:05:22.823Z,14.75
2023-05-20T06:10:29.552Z,14.80
2023-05-20T06:15:32.815Z,14.87
2023-05-20T06:20:36.321Z,14.93
2023-05-20T06:25:39.703Z,14.98
2023-05-20T06:30:43.567Z,15.01
2023-05-20T06:35:47.798Z,15.04
2023-05-20T06:40:51.930Z,15.20
2023-05-20T06:45:55.347Z,15.35
2023-05-20T06:51:11.256Z,15.57
2023-05-20T06:56:15.345Z,15.72
2023-05-20T07:01:18.893Z,15.77
2023-05-20T07:06:23.341Z,16.35
2023-05-20T07:11:26.903Z,16.84
2023-05-20T07:16:32.614Z,17.02
2023-05-20T07:21:36.500Z,17.18
2023-05-20T07:26:55.996Z,17.28
2023-05-20T07:33:29.822Z,17.03
2023-05-20T07:38:33.364Z,16.82
2023-05-20T07:43:39.726Z,16.68
2023-05-20T07:48:43.868Z,16.62
2023-05-20T07:53:47.665Z,16.52
2023-05-20T07:58:55.909Z,16.43
2023-05-20T08:04:01.287Z,16.33
2023-05-20T08:09:05.336Z,16.29
2023-05-20T08:14:10.505Z,16.32
2023-05-20T08:19:16.755Z,16.39
2023-05-20T08:24:23.241Z,16.42
2023-05-20T08:29:26.903Z,16.47
2023-05-20T08:34:30.484Z,16.54
2023-05-20T08:39:33.688Z,16.63
2023-05-20T08:44:37.018Z,16.71
2023-05-20T08:49:40.209Z,16.71
2023-05-20T08:54:49.445Z,16.70
2023-05-20T08:59:52.515Z,16.72
2023-05-20T09:04:55.601Z,16.78
2023-05-20T09:10:00.333Z,16.85
2023-05-20T09:15:08.969Z,16.85
2023-05-20T09:20:12.542Z,16.90
2023-05-20T09:25:23.778Z,17.01
2023-05-20T09:30:27.719Z,17.11
2023-05-20T09:35:31.367Z,17.26
2023-05-20T09:40:37.977Z,17.42
2023-05-20T09:45:41.878Z,17.44
2023-05-20T09:50:45.420Z,17.47
2023-05-20T09:55:49.572Z,17.51
2023-05-20T10:00:54.176Z,17.50
2023-05-20T10:06:05.737Z,17.50
2023-05-20T10:11:20.828Z,17.56
2023-05-20T10:16:46.769Z,17.60
2023-05-20T10:22:12.286Z,17.74
2023-05-20T10:27:18.629Z,17.92
2023-05-20T10:32:26.109Z,18.02
2023-05-20T10:37:33.026Z,18.16
2023-05-20T10:42:36.204Z,18.30
2023-05-20T10:47:58.613Z,18.37
2023-05-20T10:53:29.320Z,18.58
2023-05-20T10:58:39.873Z,18.61
2023-05-20T11:03:45.427Z,18.63
2023-05-20T11:08:48.448Z,18.79
2023-05-20T11:13:57.630Z,19.05
2023-05-20T11:19:01.096Z,19.24
2023-05-20T11:24:04.763Z,19.47
2023-05-20T11:29:08.010Z,19.66
2023-05-20T11:34:11.430Z,19.84
2023-05-20T11:39:15.145Z,20.03
2023-05-20T11:44:20.825Z,20.29
2023-05-20T11:49:24.007Z,20.60
2023-05-20T12:33:28.956Z,22.75
2023-05-20T12:38:32.409Z,22.94
2023-05-20T12:43:37.480Z,23.26
2023-05-20T12:48:42.504Z,23.43
2023-05-20T12:53:46.056Z,23.53
2023-05-20T12:58:49.377Z,23.58
2023-05-20T13:03:53.876Z,23.69
2023-05-20T13:08:57.419Z,23.90
2023-05-20T13:14:00.807Z,24.14
2023-05-20T13:19:04.032Z,24.30
2023-05-20T13:24:07.308Z,24.48
2023-05-20T13:29:10.773Z,24.48
2023-05-20T13:34:14.301Z,24.53
2023-05-20T13:39:17.416Z,24.63
2023-05-20T13:44:22.823Z,24.73
2023-05-20T13:49:26.084Z,24.83
2023-05-20T13:54:30.589Z,24.85
2023-05-20T13:59:33.873Z,24.80
2023-05-20T14:04:39.952Z,24.72
2023-05-20T14:09:43.670Z,24.62
2023-05-20T14:14:46.828Z,24.52
2023-05-20T14:19:50.320Z,24.45
2023-05-20T14:24:53.414Z,24.33
2023-05-20T14:29:56.602Z,24.17
2023-05-20T14:35:00.281Z,24.14
2023-05-20T14:40:05.434Z,24.11
2023-05-20T14:45:08.922Z,24.08
2023-05-20T14:50:12.103Z,23.98
2023-05-20T14:55:15.323Z,23.84
2023-05-20T15:00:18.505Z,23.76
2023-05-20T15:05:21.858Z,23.69
2023-05-20T15:10:24.984Z,23.62
2023-05-20T15:15:28.125Z,23.56
2023-05-20T15:20:31.272Z,23.48
2023-05-20T15:25:34.634Z,23.42
2023-05-20T15:30:38.194Z,23.32
2023-05-20T15:35:41.900Z,23.22
2023-05-20T15:40:45.034Z,23.15
2023-05-20T15:45:59.305Z,23.13
2023-05-20T15:51:03.006Z,23.09
2023-05-20T15:56:06.591Z,23.01
2023-05-20T16:01:09.783Z,22.98
2023-05-20T16:06:13.249Z,22.95
2023-05-20T16:11:16.581Z,22.90
2023-05-20T16:16:19.905Z,22.87
2023-05-20T16:21:25.166Z,22.89
2023-05-20T16:26:31.145Z,22.82
2023-05-20T16:33:28.933Z,22.78
2023-05-20T16:38:34.507Z,22.71
2023-05-20T16:43:37.733Z,22.66
2023-05-20T16:48:41.488Z,22.58
2023-05-20T16:53:44.657Z,22.53
2023-05-20T16:58:48.286Z,22.45
2023-05-20T17:03:52.229Z,22.36
2023-05-20T17:08:55.468Z,22.27
2023-05-20T17:13:58.548Z,22.21
2023-05-20T17:19:02.198Z,22.14
2023-05-20T17:24:05.750Z,22.06
2023-05-20T17:33:31.822Z,21.98
2023-05-20T17:38:35.028Z,21.86
2023-05-20T17:43:38.087Z,21.81
2023-05-20T17:48:41.654Z,21.70
2023-05-20T17:53:44.851Z,21.57
2023-05-20T17:58:48.339Z,21.44
2023-05-20T18:03:51.698Z,21.33
2023-05-20T18:08:59.962Z,21.21
2023-05-20T18:14:03.582Z,21.09
2023-05-20T18:19:06.869Z,20.92
2023-05-20T18:24:11.577Z,20.77
2023-05-20T18:29:14.814Z,20.63
2023-05-20T18:34:17.928Z,20.55
2023-05-20T18:39:24.503Z,20.45
2023-05-20T18:44:27.646Z,20.34
2023-05-20T18:49:30.800Z,20.22
2023-05-20T18:54:34.046Z,20.12
2023-05-20T18:59:37.174Z,20.03
2023-05-20T19:04:40.383Z,19.93
2023-05-20T19:09:43.419Z,19.81
2023-05-20T19:14:46.834Z,19.74
2023-05-20T19:19:50.275Z,19.65
2023-05-20T19:24:53.393Z,19.62
2023-05-20T19:29:56.631Z,19.66
2023-05-20T19:34:59.782Z,19.67
2023-05-20T19:40:03.119Z,19.67
2023-05-20T19:45:07.351Z,19.64
2023-05-20T19:50:10.994Z,19.53
2023-05-20T19:55:14.777Z,19.41
2023-05-20T20:00:18.278Z,19.29
2023-05-20T20:05:23.772Z,19.19
2023-05-20T20:10:27.265Z,19.09
2023-05-20T20:15:31.865Z,18.97
2023-05-20T20:20:39.963Z,18.84
2023-05-20T20:25:44.099Z,18.72
2023-05-20T20:30:47.228Z,18.62
2023-05-20T20:35:54.566Z,18.58
2023-05-20T20:40:59.510Z,18.60
2023-05-20T20:46:02.707Z,18.55
2023-05-20T20:51:05.776Z,18.49
2023-05-20T20:56:10.004Z,18.38
2023-05-20T21:01:17.721Z,18.28
2023-05-20T21:06:21.353Z,18.13
2023-05-20T21:11:28.298Z,17.99
2023-05-20T21:16:32.092Z,17.89
2023-05-20T21:21:36.737Z,17.84
2023-05-20T21:26:39.940Z,17.84
2023-05-20T21:31:43.047Z,17.88
2023-05-20T21:36:46.121Z,17.85
2023-05-20T21:41:49.316Z,17.81
2023-05-20T21:46:52.684Z,17.73
2023-05-20T21:51:55.868Z,17.71
2023-05-20T21:56:58.926Z,17.62
2023-05-20T22:02:02.326Z,17.60
2023-05-20T22:07:05.808Z,17.63
2023-05-20T22:12:11.250Z,17.66
2023-05-20T22:17:14.808Z,17.65
2023-05-20T22:22:17.982Z,17.68
2023-05-20T22:27:21.562Z,17.72
2023-05-20T22:32:24.783Z,17.64
2023-05-20T22:37:29.004Z,17.54
2023-05-20T22:42:32.231Z,17.53
2023-05-20T22:47:35.324Z,17.52
2023-05-20T22:52:38.374Z,17.46
2023-05-20T22:57:43.708Z,17.43
2023-05-20T23:02:50.121Z,17.39
2023-05-20T23:07:53.797Z,17.36
2023-05-20T23:12:57.106Z,17.28
2023-05-20T23:18:00.490Z,17.22
2023-05-20T23:23:10.971Z,17.24
2023-05-20T23:28:14.759Z,17.28
2023-05-20T23:33:22.910Z,17.28
2023-05-20T23:38:28.452Z,17.30
2023-05-20T23:43:31.738Z,17.29
2023-05-20T23:48:36.132Z,17.25
2023-05-20T23:53:41.133Z,17.25
2023-05-20T23:58:44.332Z,17.30
